Pershing, Indiana
Current Conditions -  °F | °C
As of 1:05 AM on Monday 26 Jan 2015 (Local Time) from KMIE Reporting Station
Overcast Overcast  
Wind Chill:   Ceiling: 1300
Heat Index: 19°   Visibility: 8mi
Dew Point: 15°   Wind: 17mph
Humidity: 85%   Direction: 30°NNE
Pressure: 29.85"   Gusts: 24mph
Location:  39.83°N, 85.13°W
Report Text: KMIE 260605Z AUTO 03015G21KT 8SM BKN013 OVC024 M07/M09 A2985 RMK AO2 T10721094
Loading
Personal Weather Stations






























Interactive Weather Map New forecast layout! Learn more

10-Day Weather Forecast

Advertisements
Track Severe Weather on mobile